Cape Hatteras Natl Seashore, North Carolina
Current Conditions -  °F | °C
As of 1:51 PM on Saturday 20 Dec 2014 (Local Time) from KHSE Reporting Station
Light Rain Light Rain  
Wind Chill: 39°   Ceiling: 6000
Heat Index: 43°   Visibility: 9mi
Dew Point: 38°   Wind: 7mph
Humidity: 82%   Direction: 20°NNE
Pressure: 30.24"   Gusts: NA
Location:  35.22°N, 75.68°W
Report Text: KHSE 201851Z AUTO 02006KT 9SM -RA BKN060 OVC070 06/03 A3024 RMK AO2 SLP239 P0002 T00610033 TSNO
Loading
Personal Weather Stations






























Interactive Weather Map New forecast layout! Learn more

10-Day Weather Forecast

Advertisements
Track Severe Weather on mobile